Time;durP1;ratioP1;P1;durP2;ratioP2;P2;SDS_P1;SDS_P2;PMS_P1;PMS_P2;Temp;Humidity;BMP_temperature;BMP_pressure;BME280_temperature;BME280_humidity;BME280_pressure;Samples;Min_cycle;Max_cycle;Signal;HPM_P1;HPM_P2
2021/08/04 00:02:05;;;;;;;41.53;37.17;;;12.00;99.90;;;;;;5054825;28;20464;-69
2021/08/04 00:04:33;;;;;;;40.40;35.73;;;12.10;99.90;;;;;;5054985;28;20812;-69
2021/08/04 00:07:01;;;;;;;39.63;35.50;;;12.10;99.90;;;;;;5057356;28;20462;-69
2021/08/04 00:09:28;;;;;;;39.80;35.70;;;12.20;99.90;;;;;;5057257;28;20468;-69
2021/08/04 00:11:55;;;;;;;39.10;35.00;;;12.20;99.90;;;;;;5048397;28;20543;-69
2021/08/04 00:14:22;;;;;;;40.63;36.83;;;12.10;99.90;;;;;;5053082;28;20495;-69
2021/08/04 00:16:50;;;;;;;42.03;37.93;;;12.10;99.90;;;;;;5057116;28;20525;-69
2021/08/04 00:19:17;;;;;;;39.90;35.90;;;12.10;99.90;;;;;;5054179;28;20477;-69
2021/08/04 00:21:46;;;;;;;43.63;39.13;;;12.10;99.90;;;;;;5055114;28;20828;-69
2021/08/04 00:24:13;;;;;;;41.00;37.20;;;12.00;99.90;;;;;;5059705;28;20454;-70
2021/08/04 00:26:40;;;;;;;42.10;38.10;;;12.00;99.90;;;;;;5057161;28;20463;-71
2021/08/04 00:29:07;;;;;;;41.57;37.57;;;11.90;99.90;;;;;;5057653;28;20459;-69
2021/08/04 00:31:36;;;;;;;40.93;36.70;;;11.90;99.90;;;;;;5053541;28;20460;-69
2021/08/04 00:34:02;;;;;;;39.70;35.90;;;12.00;99.90;;;;;;5050409;28;20486;-69
2021/08/04 00:36:29;;;;;;;38.97;34.87;;;11.80;99.90;;;;;;5055885;28;20475;-69
2021/08/04 00:38:58;;;;;;;42.23;37.93;;;11.70;99.90;;;;;;5055877;28;20485;-71
2021/08/04 00:41:27;;;;;;;41.00;37.00;;;11.60;99.90;;;;;;5052477;28;20457;-69
2021/08/04 00:43:55;;;;;;;39.90;36.10;;;11.50;99.90;;;;;;5057601;28;20470;-69
2021/08/04 00:46:21;;;;;;;41.63;37.10;;;11.50;99.90;;;;;;5054149;28;20479;-68
2021/08/04 00:48:49;;;;;;;42.60;38.40;;;11.60;99.90;;;;;;5061906;28;20463;-69
2021/08/04 00:51:16;;;;;;;44.50;39.67;;;11.50;99.90;;;;;;5055130;28;20488;-71
2021/08/04 00:53:43;;;;;;;39.60;35.70;;;11.50;99.90;;;;;;5057679;28;20471;-70
2021/08/04 00:56:11;;;;;;;38.23;34.60;;;11.50;99.90;;;;;;5059909;28;20467;-69
2021/08/04 00:58:40;;;;;;;38.53;34.47;;;11.50;99.90;;;;;;5058332;28;20458;-70
2021/08/04 01:01:13;;;;;;;41.73;37.23;;;11.30;99.90;;;;;;5056544;28;20953;-70
2021/08/04 01:03:43;;;;;;;41.47;37.40;;;11.20;99.90;;;;;;5051306;28;20452;-68
2021/08/04 01:06:14;;;;;;;42.93;37.70;;;11.20;99.90;;;;;;5058955;28;20522;-69
2021/08/04 01:08:48;;;;;;;42.90;38.57;;;11.20;99.90;;;;;;5060489;28;20482;-68
2021/08/04 01:11:18;;;;;;;40.47;36.10;;;11.30;99.90;;;;;;5058679;28;20458;-69
2021/08/04 01:13:48;;;;;;;45.23;37.00;;;11.20;99.90;;;;;;5055686;28;20490;-69
2021/08/04 01:16:22;;;;;;;40.10;36.40;;;11.10;99.90;;;;;;5060127;28;20482;-68
2021/08/04 01:18:55;;;;;;;38.07;34.43;;;11.10;99.90;;;;;;5058274;28;20809;-70
2021/08/04 01:21:29;;;;;;;37.53;33.80;;;11.00;99.90;;;;;;5056223;28;20872;-69
2021/08/04 01:24:06;;;;;;;37.93;34.40;;;11.00;99.90;;;;;;5056004;28;20455;-71
2021/08/04 01:26:37;;;;;;;44.80;35.83;;;11.00;99.90;;;;;;5055810;28;20869;-68
2021/08/04 01:29:08;;;;;;;38.77;34.80;;;11.00;99.90;;;;;;5057238;28;20467;-69
2021/08/04 01:31:37;;;;;;;39.67;35.63;;;11.00;99.90;;;;;;5056177;28;20957;-70
2021/08/04 01:34:05;;;;;;;39.00;35.30;;;11.00;99.90;;;;;;5058048;28;20505;-68
2021/08/04 01:36:33;;;;;;;39.30;35.40;;;11.00;99.90;;;;;;5057024;28;20470;-69
2021/08/04 01:39:02;;;;;;;48.80;37.50;;;10.90;99.90;;;;;;5056729;28;20800;-68
2021/08/04 01:41:33;;;;;;;42.30;37.77;;;10.80;99.90;;;;;;5053975;28;20811;-70
2021/08/04 01:44:05;;;;;;;41.57;36.97;;;10.80;99.90;;;;;;5053999;28;20458;-69
2021/08/04 01:46:32;;;;;;;43.03;38.50;;;10.80;99.90;;;;;;5062936;28;20473;-69
2021/08/04 01:49:01;;;;;;;41.77;37.30;;;10.80;99.90;;;;;;5056576;28;20815;-67
2021/08/04 01:51:29;;;;;;;43.00;36.27;;;10.70;99.90;;;;;;5059093;28;20458;-68
2021/08/04 01:53:57;;;;;;;41.70;37.60;;;10.70;99.90;;;;;;5058242;28;20483;-68
2021/08/04 01:56:25;;;;;;;41.50;37.40;;;10.60;99.90;;;;;;5055704;28;21008;-68
2021/08/04 01:58:53;;;;;;;39.03;34.83;;;10.60;99.90;;;;;;5053419;28;20448;-68
2021/08/04 02:01:25;;;;;;;40.10;36.10;;;10.60;99.90;;;;;;5055502;28;20461;-68
2021/08/04 02:03:52;;;;;;;40.53;36.40;;;10.60;99.90;;;;;;5057128;28;20448;-69
2021/08/04 02:06:24;;;;;;;41.50;37.20;;;10.60;99.90;;;;;;5053788;28;20463;-68
2021/08/04 02:09:01;;;;;;;40.60;36.83;;;10.60;99.90;;;;;;5057078;28;20463;-68
2021/08/04 02:11:43;;;;;;;40.53;36.23;;;10.60;99.90;;;;;;5057124;28;20453;-69
2021/08/04 02:14:18;;;;;;;40.50;36.60;;;10.60;99.90;;;;;;5056221;28;20540;-69
2021/08/04 02:16:55;;;;;;;38.80;35.00;;;10.60;99.90;;;;;;5057129;28;20475;-68
2021/08/04 02:19:28;;;;;;;37.93;34.33;;;10.50;99.90;;;;;;5052385;28;20459;-68
2021/08/04 02:21:59;;;;;;;39.57;35.63;;;10.50;99.90;;;;;;5056565;28;20447;-70
2021/08/04 02:24:27;;;;;;;39.57;35.63;;;10.50;99.90;;;;;;5055703;28;20937;-69
2021/08/04 02:26:59;;;;;;;42.23;37.77;;;10.50;99.90;;;;;;5054524;28;20457;-69
2021/08/04 02:29:26;;;;;;;42.23;37.67;;;10.50;99.90;;;;;;5056475;28;20463;-70
2021/08/04 02:31:54;;;;;;;41.63;37.33;;;10.50;99.90;;;;;;5055506;28;20460;-68
2021/08/04 02:34:22;;;;;;;39.60;35.47;;;10.60;99.90;;;;;;5048218;28;20476;-68
2021/08/04 02:36:49;;;;;;;40.07;35.70;;;10.70;99.90;;;;;;5057130;28;20467;-68
2021/08/04 02:39:16;;;;;;;38.30;34.80;;;10.70;99.90;;;;;;5056150;28;20463;-69
2021/08/04 02:41:44;;;;;;;37.10;33.70;;;10.70;99.90;;;;;;5057554;28;20937;-68
2021/08/04 02:44:15;;;;;;;38.47;34.80;;;10.60;99.90;;;;;;5054677;28;20815;-70
2021/08/04 02:46:42;;;;;;;36.50;33.20;;;10.60;99.90;;;;;;5057417;28;20478;-69
2021/08/04 02:49:11;;;;;;;36.43;32.90;;;10.50;99.90;;;;;;5049522;28;20542;-68
2021/08/04 02:51:41;;;;;;;35.57;32.23;;;10.50;99.90;;;;;;5054362;28;20958;-68
2021/08/04 02:54:12;;;;;;;36.27;33.10;;;10.40;99.90;;;;;;5054527;28;20479;-68
2021/08/04 02:56:39;;;;;;;33.80;30.80;;;10.40;99.90;;;;;;5057097;28;20460;-70
2021/08/04 02:59:06;;;;;;;33.50;30.53;;;10.40;99.90;;;;;;5054941;28;20539;-68
2021/08/04 03:01:32;;;;;;;37.07;33.50;;;10.40;99.90;;;;;;5061605;28;20458;-69
2021/08/04 03:03:59;;;;;;;36.07;32.57;;;10.40;99.90;;;;;;5055269;28;20464;-68
2021/08/04 03:06:28;;;;;;;35.73;32.43;;;10.40;99.90;;;;;;5051615;28;21005;-69
2021/08/04 03:08:55;;;;;;;35.77;32.57;;;10.40;99.90;;;;;;5054461;28;20455;-68
2021/08/04 03:11:22;;;;;;;37.47;33.90;;;10.40;99.90;;;;;;5053575;28;20541;-68
2021/08/04 03:13:49;;;;;;;42.30;38.00;;;10.30;99.90;;;;;;5054672;28;20462;-69
2021/08/04 03:16:16;;;;;;;41.10;35.93;;;10.30;99.90;;;;;;5061395;28;20489;-68
2021/08/04 03:18:42;;;;;;;42.27;37.77;;;10.20;99.90;;;;;;5052128;28;20470;-70
2021/08/04 03:21:10;;;;;;;43.97;39.30;;;10.10;99.90;;;;;;5056501;28;20467;-70
2021/08/04 03:23:38;;;;;;;47.47;40.70;;;10.20;99.90;;;;;;5050423;28;21009;-67
2021/08/04 03:26:05;;;;;;;53.93;45.80;;;10.40;99.90;;;;;;5056522;28;20460;-68
2021/08/04 03:28:32;;;;;;;52.57;43.17;;;10.50;99.90;;;;;;5059146;28;20971;-68
2021/08/04 03:30:59;;;;;;;50.47;42.53;;;10.70;99.90;;;;;;5059495;28;20789;-70
2021/08/04 03:33:27;;;;;;;56.40;44.43;;;10.70;99.90;;;;;;5059125;28;20502;-70
2021/08/04 03:35:55;;;;;;;43.33;36.53;;;10.70;99.90;;;;;;5054846;28;20494;-68
2021/08/04 03:38:22;;;;;;;45.70;40.70;;;10.70;99.90;;;;;;5052958;28;20458;-68
2021/08/04 03:40:50;;;;;;;42.93;38.27;;;10.60;99.90;;;;;;5058371;28;20455;-70
2021/08/04 03:43:19;;;;;;;48.37;41.17;;;10.60;99.90;;;;;;5056581;28;20943;-69
2021/08/04 03:45:46;;;;;;;49.37;43.37;;;10.50;99.90;;;;;;5056225;28;20534;-70
2021/08/04 03:48:13;;;;;;;56.33;42.40;;;10.40;99.90;;;;;;5055490;28;20814;-67
2021/08/04 03:50:40;;;;;;;52.63;41.83;;;10.30;99.90;;;;;;5050670;28;20462;-68
2021/08/04 03:53:07;;;;;;;48.07;42.93;;;10.30;99.90;;;;;;5054797;28;21079;-70
2021/08/04 03:55:35;;;;;;;47.20;42.07;;;10.30;99.90;;;;;;5054362;28;20489;-68
2021/08/04 03:58:03;;;;;;;49.13;42.10;;;10.30;99.90;;;;;;5047578;28;20546;-70
2021/08/04 04:00:30;;;;;;;45.07;38.97;;;10.30;99.90;;;;;;5057723;28;20962;-68
2021/08/04 04:02:58;;;;;;;45.33;40.53;;;10.20;99.90;;;;;;5054270;28;20492;-69
2021/08/04 04:05:25;;;;;;;45.83;40.80;;;10.20;99.90;;;;;;5054421;28;20829;-70
2021/08/04 04:07:52;;;;;;;53.57;43.63;;;10.10;99.90;;;;;;5064848;28;20463;-68
2021/08/04 04:10:19;;;;;;;52.77;45.57;;;10.30;99.90;;;;;;5039135;28;21101;-67
2021/08/04 04:12:46;;;;;;;56.00;45.93;;;10.40;99.90;;;;;;5043086;28;20980;-70
2021/08/04 04:15:15;;;;;;;56.17;47.60;;;10.50;99.90;;;;;;5052252;28;20486;-68
2021/08/04 04:17:41;;;;;;;69.20;46.17;;;10.60;99.90;;;;;;5048785;28;20515;-68
2021/08/04 04:20:09;;;;;;;56.03;45.60;;;10.60;99.90;;;;;;5054890;28;20488;-70
2021/08/04 04:22:37;;;;;;;57.27;48.40;;;10.60;99.90;;;;;;5052749;28;20452;-68
2021/08/04 04:25:04;;;;;;;54.47;46.07;;;10.60;99.90;;;;;;5053812;28;20844;-68
2021/08/04 04:27:31;;;;;;;48.07;42.00;;;10.70;99.90;;;;;;5058899;28;20559;-68
2021/08/04 04:29:58;;;;;;;45.53;40.63;;;10.80;99.90;;;;;;5051386;28;20556;-70
2021/08/04 04:32:26;;;;;;;44.37;39.77;;;10.80;99.90;;;;;;5055539;28;20459;-69
2021/08/04 04:34:54;;;;;;;45.03;40.33;;;10.80;99.90;;;;;;5053858;28;20494;-68
2021/08/04 04:37:21;;;;;;;47.10;42.10;;;10.90;99.90;;;;;;5055924;28;20553;-69
2021/08/04 04:39:48;;;;;;;45.47;40.60;;;11.00;99.90;;;;;;5052460;28;20455;-68
2021/08/04 04:42:15;;;;;;;48.90;43.27;;;11.10;99.90;;;;;;5050182;28;20813;-69
2021/08/04 04:44:43;;;;;;;48.23;42.97;;;11.20;99.90;;;;;;5055882;28;21056;-67
2021/08/04 04:47:10;;;;;;;48.00;42.90;;;11.30;99.90;;;;;;5056281;28;20483;-68
2021/08/04 04:49:38;;;;;;;50.37;43.70;;;11.30;99.90;;;;;;5054641;28;20485;-68
2021/08/04 04:52:06;;;;;;;55.97;42.73;;;11.40;99.90;;;;;;5054685;28;20459;-69
2021/08/04 04:54:33;;;;;;;53.40;46.17;;;11.50;99.90;;;;;;5046690;28;20487;-68
2021/08/04 04:57:00;;;;;;;48.63;43.60;;;11.60;99.90;;;;;;5054763;28;20491;-68
2021/08/04 04:59:27;;;;;;;56.20;46.10;;;11.80;99.90;;;;;;5046618;28;21107;-68
2021/08/04 05:01:53;;;;;;;53.67;46.80;;;11.90;99.90;;;;;;5053353;28;20490;-68
2021/08/04 05:04:21;;;;;;;53.60;44.80;;;12.00;99.90;;;;;;5054905;28;20861;-70
2021/08/04 05:06:49;;;;;;;58.90;47.60;;;12.00;99.90;;;;;;5059009;28;20459;-68
2021/08/04 05:09:16;;;;;;;49.10;43.70;;;12.10;99.90;;;;;;5055721;28;20491;-70
2021/08/04 05:11:43;;;;;;;48.63;43.37;;;12.00;99.90;;;;;;5060731;28;20886;-68
2021/08/04 05:14:11;;;;;;;58.23;45.10;;;12.00;99.90;;;;;;5048023;28;20491;-71
2021/08/04 05:16:38;;;;;;;48.60;43.50;;;12.00;99.90;;;;;;5046654;28;20491;-69
2021/08/04 05:19:05;;;;;;;47.40;42.43;;;12.00;99.90;;;;;;5052105;28;20455;-70
2021/08/04 05:21:33;;;;;;;48.53;43.20;;;11.90;99.90;;;;;;5057884;28;20466;-69
2021/08/04 05:24:02;;;;;;;50.40;43.90;;;11.90;99.90;;;;;;5050725;28;21020;-68
2021/08/04 05:26:29;;;;;;;51.77;44.33;;;12.00;99.90;;;;;;5050227;28;20521;-68
2021/08/04 05:28:57;;;;;;;51.00;42.83;;;12.10;99.90;;;;;;5050222;28;20468;-71
2021/08/04 05:31:24;;;;;;;51.27;43.00;;;12.10;99.90;;;;;;5050754;28;20459;-68
2021/08/04 05:33:51;;;;;;;48.37;43.47;;;12.10;99.90;;;;;;5051044;28;20456;-70
2021/08/04 05:36:19;;;;;;;51.20;44.33;;;12.20;99.90;;;;;;5052174;28;20492;-68
2021/08/04 05:38:46;;;;;;;47.87;42.90;;;12.10;99.90;;;;;;5056281;28;20464;-70
2021/08/04 05:41:14;;;;;;;52.20;46.67;;;12.20;99.90;;;;;;5052672;28;20464;-68
2021/08/04 05:43:42;;;;;;;51.13;45.70;;;12.30;99.90;;;;;;5052346;28;20459;-69
2021/08/04 05:46:08;;;;;;;52.60;46.90;;;12.40;99.90;;;;;;5055750;28;20487;-68
2021/08/04 05:48:36;;;;;;;61.20;47.73;;;12.50;99.90;;;;;;5056963;28;20981;-68
2021/08/04 05:51:03;;;;;;;54.77;49.23;;;12.60;99.90;;;;;;5050180;28;20466;-68
2021/08/04 05:53:30;;;;;;;54.13;47.10;;;12.80;99.90;;;;;;5049541;28;20472;-68
2021/08/04 05:55:57;;;;;;;54.10;48.20;;;12.90;99.90;;;;;;5056159;28;20482;-70
2021/08/04 05:58:25;;;;;;;59.17;47.87;;;13.00;99.90;;;;;;5052175;28;20463;-69
2021/08/04 06:00:52;;;;;;;56.27;48.83;;;13.00;99.90;;;;;;5046741;28;20954;-69
2021/08/04 06:03:18;;;;;;;59.00;47.67;;;13.10;99.90;;;;;;5049706;28;20471;-69
2021/08/04 06:05:45;;;;;;;60.93;48.93;;;13.10;99.90;;;;;;5050550;28;20456;-69
2021/08/04 06:08:12;;;;;;;75.57;51.60;;;13.20;99.90;;;;;;5057956;28;20819;-68
2021/08/04 06:10:39;;;;;;;56.37;47.70;;;13.30;99.90;;;;;;5054023;28;20828;-70
2021/08/04 06:13:06;;;;;;;63.73;51.27;;;13.40;99.90;;;;;;5051934;28;20448;-68
2021/08/04 06:15:35;;;;;;;71.00;52.53;;;13.40;99.90;;;;;;5048478;28;21092;-70
2021/08/04 06:18:01;;;;;;;67.80;52.17;;;13.50;99.90;;;;;;5048367;28;21185;-69
2021/08/04 06:20:28;;;;;;;72.80;52.10;;;13.70;99.90;;;;;;5052667;28;20460;-69
2021/08/04 06:22:55;;;;;;;70.40;55.43;;;13.80;99.90;;;;;;5053442;28;20463;-70
2021/08/04 06:25:22;;;;;;;80.43;58.07;;;14.00;99.90;;;;;;5054393;28;20458;-70
2021/08/04 06:27:51;;;;;;;69.83;56.57;;;14.20;99.90;;;;;;5050654;28;20553;-70
2021/08/04 06:30:18;;;;;;;66.67;53.60;;;14.30;99.90;;;;;;5051589;28;20454;-68
2021/08/04 06:32:46;;;;;;;63.80;54.40;;;14.50;99.90;;;;;;5053569;28;20481;-68
2021/08/04 06:35:13;;;;;;;66.33;55.70;;;14.60;99.90;;;;;;5046167;28;20484;-68
2021/08/04 06:37:41;;;;;;;72.20;56.07;;;14.70;99.90;;;;;;5054279;28;20467;-69
2021/08/04 06:40:09;;;;;;;63.70;53.77;;;14.70;99.90;;;;;;5055593;28;20942;-70
2021/08/04 06:42:36;;;;;;;73.00;53.93;;;14.90;99.90;;;;;;5050001;28;21007;-68
2021/08/04 06:45:04;;;;;;;71.87;53.30;;;14.90;99.90;;;;;;5051677;28;20470;-69
2021/08/04 06:47:31;;;;;;;65.47;54.63;;;14.80;99.90;;;;;;5052411;28;21163;-69
2021/08/04 06:49:59;;;;;;;68.67;55.67;;;15.00;99.90;;;;;;5051109;28;20474;-70
2021/08/04 06:52:28;;;;;;;62.53;51.77;;;15.10;99.90;;;;;;5052429;28;20468;-69
2021/08/04 06:54:54;;;;;;;62.67;51.00;;;15.20;99.90;;;;;;5049625;28;20529;-70
2021/08/04 06:57:22;;;;;;;57.87;48.83;;;15.30;99.90;;;;;;5052726;28;20455;-68
2021/08/04 06:59:49;;;;;;;58.40;50.70;;;15.40;99.90;;;;;;5052811;28;20937;-69
2021/08/04 07:02:16;;;;;;;51.53;46.10;;;15.50;99.90;;;;;;5053205;28;20985;-69
2021/08/04 07:04:43;;;;;;;51.80;46.20;;;15.70;99.90;;;;;;5050922;28;20493;-69
2021/08/04 07:07:15;;;;;;;53.23;46.87;;;15.70;99.90;;;;;;5048583;28;20860;-69
2021/08/04 07:09:43;;;;;;;56.70;46.60;;;15.60;99.90;;;;;;5052663;28;20545;-68
2021/08/04 07:12:11;;;;;;;49.23;44.23;;;15.80;99.90;;;;;;5051455;28;20451;-70
2021/08/04 07:14:39;;;;;;;52.80;44.27;;;15.90;99.90;;;;;;5052751;28;20456;-69
2021/08/04 07:17:05;;;;;;;48.67;43.67;;;16.00;99.90;;;;;;5051456;28;20882;-69
2021/08/04 07:19:33;;;;;;;46.43;41.60;;;16.10;99.90;;;;;;5050450;28;20537;-68
2021/08/04 07:22:01;;;;;;;46.13;41.37;;;16.30;99.90;;;;;;5050050;28;20486;-71
2021/08/04 07:24:29;;;;;;;51.23;42.60;;;16.40;99.90;;;;;;5049298;28;20491;-69
2021/08/04 07:26:57;;;;;;;44.50;40.00;;;16.50;99.90;;;;;;5052188;28;20456;-69
2021/08/04 07:29:23;;;;;;;44.50;39.60;;;16.60;99.90;;;;;;5044308;28;20451;-71
2021/08/04 07:31:50;;;;;;;47.20;42.33;;;16.70;99.90;;;;;;5053101;28;20455;-70
2021/08/04 07:34:21;;;;;;;46.20;41.23;;;16.90;99.90;;;;;;5045433;28;20463;-70
2021/08/04 07:36:48;;;;;;;45.67;39.63;;;17.00;99.90;;;;;;5048255;28;20583;-70
2021/08/04 07:39:15;;;;;;;42.10;38.20;;;17.00;99.90;;;;;;5049649;28;20466;-68
2021/08/04 07:41:45;;;;;;;40.80;37.07;;;17.20;99.90;;;;;;5053065;28;20470;-69
2021/08/04 07:44:11;;;;;;;39.13;35.43;;;17.30;99.90;;;;;;5052886;28;20478;-69
2021/08/04 07:46:39;;;;;;;39.87;36.30;;;17.40;99.90;;;;;;5052537;28;20486;-69
2021/08/04 07:49:05;;;;;;;38.63;34.90;;;17.40;99.90;;;;;;5042646;28;20459;-67
2021/08/04 07:51:33;;;;;;;38.93;34.83;;;17.50;99.90;;;;;;5049983;28;20466;-68
2021/08/04 07:54:01;;;;;;;35.57;32.27;;;17.70;99.90;;;;;;5049822;28;20474;-68
2021/08/04 07:56:28;;;;;;;32.30;29.60;;;17.80;99.90;;;;;;5050000;28;20497;-68
2021/08/04 07:59:02;;;;;;;32.63;28.60;;;17.90;99.90;;;;;;5055399;28;20874;-68
2021/08/04 08:01:29;;;;;;;32.57;29.70;;;18.10;99.90;;;;;;5049637;28;20510;-72
2021/08/04 08:03:56;;;;;;;28.60;26.27;;;18.30;99.90;;;;;;5056557;28;20459;-72
2021/08/04 08:06:23;;;;;;;26.43;24.37;;;18.50;99.90;;;;;;5061472;28;20458;-68
2021/08/04 08:08:50;;;;;;;28.17;25.97;;;18.60;99.90;;;;;;5058330;28;20469;-69
2021/08/04 08:11:16;;;;;;;29.37;27.03;;;18.80;99.90;;;;;;5058284;28;20973;-69
2021/08/04 08:13:44;;;;;;;27.73;25.70;;;19.00;99.90;;;;;;5058084;28;20976;-69
2021/08/04 08:16:13;;;;;;;27.73;25.50;;;19.00;99.90;;;;;;5057787;28;21027;-70
2021/08/04 08:18:40;;;;;;;28.10;25.53;;;19.20;99.90;;;;;;5057247;28;20748;-72
2021/08/04 08:21:07;;;;;;;26.20;24.13;;;19.30;99.90;;;;;;5057197;28;20456;-69
2021/08/04 08:23:33;;;;;;;26.10;24.10;;;19.40;99.90;;;;;;5057187;28;20475;-69
2021/08/04 08:26:00;;;;;;;27.00;24.60;;;19.50;99.90;;;;;;5055583;28;20466;-70
2021/08/04 08:28:27;;;;;;;26.47;24.47;;;19.50;99.90;;;;;;5051800;28;20455;-68
2021/08/04 08:30:54;;;;;;;26.40;24.47;;;19.60;99.90;;;;;;5058938;28;20792;-69
2021/08/04 08:33:23;;;;;;;27.00;24.60;;;19.70;99.90;;;;;;5055644;28;20458;-72
2021/08/04 08:35:49;;;;;;;25.60;23.83;;;19.80;99.90;;;;;;5060571;28;20496;-70
2021/08/04 08:38:16;;;;;;;25.23;23.33;;;20.20;99.90;;;;;;5057425;28;20455;-69
2021/08/04 08:40:46;;;;;;;23.67;21.80;;;20.50;99.90;;;;;;5059057;28;20465;-68
2021/08/04 08:43:15;;;;;;;24.00;22.20;;;21.30;99.90;;;;;;5057452;28;20950;-71
2021/08/04 08:45:43;;;;;;;22.73;21.10;;;22.00;99.90;;;;;;5056462;28;20462;-69
2021/08/04 08:48:10;;;;;;;22.10;20.20;;;22.40;99.90;;;;;;5055417;28;20467;-69
2021/08/04 08:50:43;;;;;;;23.97;22.13;;;23.10;99.90;;;;;;5055081;28;20937;-69
2021/08/04 08:53:10;;;;;;;24.43;22.23;;;23.00;99.90;;;;;;5055790;28;20455;-69
2021/08/04 08:55:38;;;;;;;22.90;21.00;;;23.00;99.90;;;;;;5055118;28;20454;-69
2021/08/04 08:58:05;;;;;;;22.73;20.73;;;23.70;99.90;;;;;;5054588;28;20459;-68
2021/08/04 09:00:32;;;;;;;22.00;20.50;;;24.60;99.90;;;;;;5053125;28;20451;-69
2021/08/04 09:03:00;;;;;;;26.03;20.10;;;25.00;99.90;;;;;;5051510;28;20456;-68
2021/08/04 09:05:29;;;;;;;22.87;20.97;;;25.60;99.90;;;;;;5061105;28;20904;-67
2021/08/04 09:07:57;;;;;;;21.43;19.27;;;25.80;99.90;;;;;;5056220;28;20452;-69
2021/08/04 09:10:27;;;;;;;20.60;19.30;;;26.40;99.90;;;;;;5055321;28;20549;-68
2021/08/04 09:12:56;;;;;;;23.13;21.50;;;26.40;99.90;;;;;;5055650;28;20962;-68
2021/08/04 09:15:28;;;;;;;24.00;22.20;;;26.80;99.90;;;;;;5054573;28;20466;-70
2021/08/04 09:18:04;;;;;;;23.33;21.57;;;25.80;99.90;;;;;;5054026;28;20487;-68
2021/08/04 09:20:44;;;;;;;24.13;22.53;;;26.60;99.90;;;;;;5050550;28;20447;-68
2021/08/04 09:23:15;;;;;;;23.87;21.90;;;27.30;99.90;;;;;;5050477;28;20463;-67
2021/08/04 09:26:00;;;;;;;26.63;24.63;;;27.00;99.90;;;;;;5051250;28;20463;-68
2021/08/04 09:28:27;;;;;;;29.30;27.00;;;26.80;99.90;;;;;;5066353;28;20469;-67
2021/08/04 09:31:02;;;;;;;28.37;26.37;;;27.10;99.90;;;;;;5061482;28;20462;-68
2021/08/04 09:33:36;;;;;;;27.37;25.23;;;27.50;99.90;;;;;;5060167;28;20463;-68
2021/08/04 09:36:07;;;;;;;27.70;25.40;;;27.60;99.90;;;;;;5059539;28;20475;-68
2021/08/04 09:38:36;;;;;;;25.40;23.60;;;27.30;99.90;;;;;;5056779;28;20455;-69
2021/08/04 09:41:15;;;;;;;26.27;24.43;;;27.40;99.90;;;;;;5051393;28;20868;-69
2021/08/04 09:43:48;;;;;;;25.37;23.40;;;26.80;99.90;;;;;;5061292;28;20486;-68
2021/08/04 09:46:23;;;;;;;27.33;25.23;;;26.50;99.90;;;;;;5061179;28;20566;-68
2021/08/04 09:48:49;;;;;;;25.90;23.70;;;25.60;99.90;;;;;;5055604;28;20456;-68
2021/08/04 09:51:18;;;;;;;25.97;23.87;;;25.70;99.90;;;;;;5058148;28;20467;-70
2021/08/04 09:53:49;;;;;;;26.47;24.47;;;25.60;99.90;;;;;;5055767;28;20490;-67
2021/08/04 09:56:18;;;;;;;25.80;23.73;;;26.70;99.90;;;;;;5063341;28;20479;-68
2021/08/04 09:58:47;;;;;;;24.03;21.87;;;27.70;99.90;;;;;;5055601;28;20981;-69
2021/08/04 10:01:16;;;;;;;25.83;23.70;;;28.50;99.50;;;;;;5046105;28;20554;-69
2021/08/04 10:04:01;;;;;;;25.10;23.27;;;29.50;98.00;;;;;;5044680;28;20463;-68
2021/08/04 10:06:29;;;;;;;23.23;21.83;;;30.30;97.50;;;;;;5051750;28;21357;-69
2021/08/04 10:09:00;;;;;;;27.27;25.17;;;30.90;95.00;;;;;;5048084;28;20466;-68
2021/08/04 10:11:28;;;;;;;24.67;22.80;;;31.40;93.50;;;;;;5051411;28;20466;-68
2021/08/04 10:13:56;;;;;;;24.20;22.30;;;32.10;93.20;;;;;;5055686;28;20817;-68
2021/08/04 10:16:24;;;;;;;25.10;23.20;;;31.80;93.10;;;;;;5047005;28;20504;-69
2021/08/04 10:18:52;;;;;;;24.47;22.77;;;32.00;91.20;;;;;;5046156;28;20914;-68
2021/08/04 10:21:22;;;;;;;25.13;23.43;;;32.90;89.30;;;;;;5049750;28;20460;-71
2021/08/04 10:23:51;;;;;;;24.60;22.93;;;32.50;88.50;;;;;;5051402;28;20465;-70
2021/08/04 10:26:21;;;;;;;24.90;23.10;;;32.10;87.20;;;;;;5045198;28;21019;-67
2021/08/04 10:28:52;;;;;;;25.50;23.60;;;31.60;86.20;;;;;;5050285;28;20460;-68
2021/08/04 10:31:20;;;;;;;24.70;22.80;;;29.70;89.50;;;;;;5058574;28;20820;-67
2021/08/04 10:33:47;;;;;;;25.50;23.50;;;29.20;91.30;;;;;;5051738;28;20541;-67
2021/08/04 10:36:17;;;;;;;27.43;25.30;;;28.60;90.30;;;;;;5050426;28;20462;-67
2021/08/04 10:38:45;;;;;;;25.57;23.43;;;27.70;91.40;;;;;;5045640;28;20467;-69
2021/08/04 10:41:15;;;;;;;25.00;23.20;;;26.50;94.50;;;;;;5052004;28;20451;-68
2021/08/04 10:43:46;;;;;;;26.70;24.40;;;25.60;95.30;;;;;;5051673;28;20826;-70
2021/08/04 10:46:38;;;;;;;27.13;25.20;;;25.70;95.00;;;;;;5054284;28;20479;-71
2021/08/04 10:49:29;;;;;;;24.83;23.13;;;25.70;94.90;;;;;;5049018;28;20459;-68
2021/08/04 10:52:15;;;;;;;26.17;24.27;;;25.60;95.60;;;;;;5052123;28;20468;-68
2021/08/04 10:55:10;;;;;;;27.70;25.40;;;24.70;96.40;;;;;;5047712;28;20464;-70
2021/08/04 10:58:19;;;;;;;26.70;24.57;;;24.50;97.70;;;;;;5025364;28;20488;-72
2021/08/04 11:00:48;;;;;;;27.17;25.23;;;24.20;98.30;;;;;;5056475;28;21219;-69
2021/08/04 11:03:47;;;;;;;26.00;23.90;;;24.60;97.70;;;;;;5056006;28;21118;-69
2021/08/04 11:06:14;;;;;;;24.23;22.23;;;24.90;98.10;;;;;;5053544;28;20925;-70
2021/08/04 11:08:47;;;;;;;26.80;24.60;;;25.20;98.60;;;;;;5054227;28;20942;-70
2021/08/04 11:11:47;;;;;;;24.70;23.00;;;25.40;99.30;;;;;;5053794;28;20532;-68
2021/08/04 11:14:36;;;;;;;25.80;23.80;;;26.10;98.00;;;;;;5049901;28;20978;-68
2021/08/04 11:17:06;;;;;;;25.63;23.60;;;26.10;98.20;;;;;;5047391;28;20498;-68
2021/08/04 11:19:35;;;;;;;25.40;23.30;;;25.90;97.80;;;;;;5052446;28;20466;-68
2021/08/04 11:22:16;;;;;;;25.80;23.77;;;25.70;97.70;;;;;;5046100;28;20464;-68
2021/08/04 11:24:53;;;;;;;24.47;22.73;;;26.00;97.60;;;;;;5046766;28;20855;-68
2021/08/04 11:27:21;;;;;;;26.50;24.00;;;26.20;97.60;;;;;;5055849;28;20458;-72
2021/08/04 11:29:48;;;;;;;26.53;24.60;;;26.20;97.80;;;;;;5051046;28;20495;-68
2021/08/04 11:32:21;;;;;;;25.63;23.53;;;26.40;97.10;;;;;;5050864;28;20471;-71
2021/08/04 11:34:48;;;;;;;27.60;25.53;;;26.70;97.90;;;;;;5050635;28;20463;-68
2021/08/04 11:37:15;;;;;;;25.77;23.87;;;26.50;96.30;;;;;;5050502;28;20483;-68
2021/08/04 11:39:53;;;;;;;26.27;24.30;;;26.30;96.80;;;;;;5052111;28;20832;-69
2021/08/04 11:42:21;;;;;;;26.60;24.60;;;26.20;98.00;;;;;;5053549;28;20816;-69
2021/08/04 11:44:48;;;;;;;24.90;23.30;;;26.50;97.00;;;;;;5054947;28;20493;-71
2021/08/04 11:47:15;;;;;;;25.20;23.50;;;26.50;96.80;;;;;;5055869;28;20485;-68
2021/08/04 11:49:46;;;;;;;25.43;23.57;;;27.00;96.20;;;;;;5048197;28;20504;-68
2021/08/04 11:52:14;;;;;;;26.87;24.77;;;27.40;96.80;;;;;;5042032;28;20537;-68
2021/08/04 11:54:45;;;;;;;27.60;25.53;;;27.70;95.90;;;;;;5050437;28;20463;-68
2021/08/04 11:57:15;;;;;;;23.17;21.87;;;27.80;94.00;;;;;;5054300;28;20491;-68
2021/08/04 11:59:44;;;;;;;25.57;23.80;;;28.60;95.00;;;;;;5052677;28;20459;-67
2021/08/04 12:02:12;;;;;;;24.47;22.87;;;29.60;92.80;;;;;;5050244;28;20577;-68
2021/08/04 12:04:45;;;;;;;25.80;24.03;;;30.80;91.80;;;;;;5048725;28;20460;-67
2021/08/04 12:07:12;;;;;;;24.60;23.00;;;31.40;90.50;;;;;;5046889;28;20463;-67
2021/08/04 12:09:40;;;;;;;24.47;22.77;;;31.00;88.40;;;;;;5051710;28;20475;-67
2021/08/04 12:12:12;;;;;;;25.03;23.53;;;30.70;89.80;;;;;;5044685;28;20456;-69
2021/08/04 12:14:40;;;;;;;24.37;22.77;;;30.10;89.20;;;;;;5052847;28;20484;-67
2021/08/04 12:17:07;;;;;;;23.53;21.83;;;29.50;88.30;;;;;;5052636;28;20483;-68
2021/08/04 12:19:40;;;;;;;24.10;22.40;;;29.70;88.50;;;;;;5053259;28;20512;-67
2021/08/04 12:22:15;;;;;;;23.90;22.10;;;29.90;88.30;;;;;;5049314;28;20458;-67
2021/08/04 12:24:45;;;;;;;25.27;23.60;;;29.90;89.80;;;;;;5048449;28;20459;-68
2021/08/04 12:27:13;;;;;;;25.20;23.40;;;30.20;85.80;;;;;;5048978;28;20455;-69
2021/08/04 12:29:40;;;;;;;25.30;23.63;;;30.40;87.50;;;;;;5052672;28;20551;-67
2021/08/04 12:32:21;;;;;;;25.73;24.00;;;30.30;86.30;;;;;;5045284;28;20460;-67
2021/08/04 12:34:56;;;;;;;25.17;23.17;;;31.10;84.10;;;;;;5050572;28;20452;-70
2021/08/04 12:37:26;;;;;;;23.83;22.13;;;32.50;84.00;;;;;;5047352;28;20481;-71
2021/08/04 12:39:55;;;;;;;21.60;19.97;;;32.20;81.00;;;;;;5045614;28;20565;-67